Anderson Springs, California
Current Conditions -  °F | °C
As of 8:53 PM on Sunday 21 Dec 2014 (Local Time) from KSTS Reporting Station
Haze Haze  
Wind Chill: 56°   Ceiling: 100
Heat Index: 56°   Visibility: 1mi
Dew Point: 55°   Wind: 0mph
Humidity: 97%   Direction: NA
Pressure: 30.28"   Gusts: NA
Location:  38.7763°N, 122.598°W
Report Text: KSTS 220453Z AUTO 00000KT 1SM BR VV001 13/13 A3028 RMK AO2 VIS 1/2V5 SLP247 T01330128
Loading
Personal Weather Stations






























Interactive Weather Map New forecast layout! Learn more

10-Day Weather Forecast

Advertisements
Track Severe Weather on mobile